createdAt,value
2022-09-24T00:02:14.657Z,6.90
2022-09-24T00:04:42.599Z,7.07
2022-09-24T00:07:10.454Z,6.43
2022-09-24T00:09:38.667Z,7.72
2022-09-24T00:12:06.570Z,7.05
2022-09-24T00:14:34.466Z,6.45
2022-09-24T00:17:02.768Z,6.22
2022-09-24T00:19:31.318Z,6.88
2022-09-24T00:21:59.258Z,6.75
2022-09-24T00:24:45.658Z,6.40
2022-09-24T00:27:13.593Z,7.05
2022-09-24T00:29:41.523Z,7.03
2022-09-24T00:32:09.611Z,9.93
2022-09-24T00:34:37.734Z,11.05
2022-09-24T00:37:05.780Z,7.70
2022-09-24T00:39:35.720Z,7.35
2022-09-24T00:42:03.612Z,7.47
2022-09-24T00:44:46.692Z,6.50
2022-09-24T00:47:35.815Z,6.97
2022-09-24T00:50:12.403Z,6.65
2022-09-24T00:52:49.553Z,6.05
2022-09-24T00:55:19.417Z,7.05
2022-09-24T00:57:50.139Z,6.80
2022-09-24T01:00:18.197Z,6.68
2022-09-24T01:02:48.340Z,6.93
2022-09-24T01:05:16.437Z,6.70
2022-09-24T01:07:44.777Z,6.63
2022-09-24T01:10:12.841Z,6.80
2022-09-24T01:13:03.419Z,5.95
2022-09-24T01:15:44.529Z,6.43
2022-09-24T01:18:41.512Z,6.32
2022-09-24T01:21:37.882Z,6.50
2022-09-24T01:24:43.282Z,6.40
2022-09-24T01:27:46.535Z,6.65
2022-09-24T01:30:19.218Z,6.70
2022-09-24T01:32:57.614Z,6.30
2022-09-24T01:35:30.117Z,5.30
2022-09-24T01:38:08.748Z,5.80
2022-09-24T01:40:38.347Z,5.50
2022-09-24T01:43:08.587Z,6.28
2022-09-24T01:45:38.285Z,6.05
2022-09-24T01:48:07.616Z,6.05
2022-09-24T01:50:56.105Z,5.60
2022-09-24T01:53:32.648Z,5.65
2022-09-24T01:56:11.929Z,5.88
2022-09-24T01:58:52.599Z,5.57
2022-09-24T02:04:07.315Z,5.63
2022-09-24T02:06:41.323Z,5.78
2022-09-24T02:09:33.017Z,6.35
2022-09-24T02:12:12.570Z,6.28
2022-09-24T02:15:07.656Z,6.43
2022-09-24T02:17:37.758Z,6.40
2022-09-24T02:20:11.898Z,5.93
2022-09-24T02:22:42.675Z,5.90
2022-09-24T02:25:14.331Z,6.38
2022-09-24T02:27:42.897Z,6.35
2022-09-24T02:30:14.779Z,6.93
2022-09-24T02:32:48.590Z,6.28
2022-09-24T02:35:17.031Z,6.75
2022-09-24T02:37:45.599Z,6.30
2022-09-24T02:40:15.771Z,5.65
2022-09-24T02:42:44.560Z,6.47
2022-09-24T02:45:13.398Z,6.30
2022-09-24T02:47:41.331Z,5.55
2022-09-24T02:50:10.109Z,6.60
2022-09-24T02:52:38.058Z,5.55
2022-09-24T02:55:06.239Z,5.93
2022-09-24T02:57:34.283Z,5.72
2022-09-24T03:00:02.287Z,6.88
2022-09-24T03:02:30.301Z,6.20
2022-09-24T03:04:58.309Z,6.07
2022-09-24T03:07:26.239Z,6.18
2022-09-24T03:09:54.186Z,5.70
2022-09-24T03:12:22.033Z,5.85
2022-09-24T03:14:49.920Z,5.97
2022-09-24T03:17:17.937Z,5.45
2022-09-24T03:19:45.812Z,5.75
2022-09-24T03:22:13.667Z,5.28
2022-09-24T03:24:41.521Z,6.18
2022-09-24T03:27:09.363Z,5.13
2022-09-24T03:29:56.122Z,6.15
2022-09-24T03:32:24.275Z,5.53
2022-09-24T03:34:52.099Z,5.65
2022-09-24T03:37:19.980Z,5.53
2022-09-24T03:39:47.825Z,6.60
2022-09-24T03:42:15.687Z,6.95
2022-09-24T03:44:43.576Z,6.32
2022-09-24T03:47:11.478Z,6.55
2022-09-24T03:49:39.387Z,5.68
2022-09-24T03:52:07.263Z,5.78
2022-09-24T03:54:35.236Z,6.28
2022-09-24T03:57:03.099Z,6.30
2022-09-24T03:59:31.015Z,6.00
2022-09-24T04:01:58.914Z,6.50
2022-09-24T04:04:26.904Z,5.80
2022-09-24T04:06:55.279Z,5.68
2022-09-24T04:09:24.795Z,6.20
2022-09-24T04:11:56.653Z,5.90
2022-09-24T04:14:27.153Z,6.53
2022-09-24T04:16:58.582Z,6.15
2022-09-24T04:21:55.791Z,6.60
2022-09-24T04:24:23.685Z,5.95
2022-09-24T04:26:51.655Z,5.78
2022-09-24T04:29:19.680Z,6.25
2022-09-24T04:31:47.714Z,5.95
2022-09-24T04:34:16.155Z,6.68
2022-09-24T04:36:44.126Z,6.50
2022-09-24T04:39:12.143Z,5.97
2022-09-24T04:41:43.109Z,5.95
2022-09-24T04:44:12.270Z,6.43
2022-09-24T04:46:41.927Z,6.20
2022-09-24T04:49:10.768Z,5.68
2022-09-24T04:51:38.778Z,6.65
2022-09-24T04:54:07.925Z,6.78
2022-09-24T04:56:36.226Z,6.55
2022-09-24T04:59:04.091Z,6.45
2022-09-24T05:01:32.073Z,6.35
2022-09-24T05:04:02.306Z,6.97
2022-09-24T05:06:30.631Z,6.57
2022-09-24T05:08:58.948Z,6.70
2022-09-24T05:11:26.862Z,7.22
2022-09-24T05:13:54.746Z,7.43
2022-09-24T05:16:23.590Z,7.00
2022-09-24T05:18:51.476Z,6.63
2022-09-24T05:21:19.356Z,7.00
2022-09-24T05:23:47.199Z,6.47
2022-09-24T05:26:33.824Z,7.18
2022-09-24T05:29:06.770Z,5.85
2022-09-24T05:31:39.014Z,7.20
2022-09-24T05:34:07.104Z,7.03
2022-09-24T05:36:34.990Z,6.78
2022-09-24T05:39:02.983Z,6.00
2022-09-24T05:41:30.813Z,6.68
2022-09-24T05:44:00.719Z,6.57
2022-09-24T05:46:28.680Z,6.03
2022-09-24T05:48:56.971Z,5.53
2022-09-24T05:51:24.887Z,6.15
2022-09-24T05:53:52.879Z,6.72
2022-09-24T05:56:20.848Z,7.03
2022-09-24T05:58:52.015Z,6.90
2022-09-24T06:01:19.887Z,6.82
2022-09-24T06:03:47.863Z,6.60
2022-09-24T06:06:15.869Z,6.68
2022-09-24T06:08:47.381Z,5.80
2022-09-24T06:11:15.342Z,6.30
2022-09-24T06:13:43.253Z,6.30
2022-09-24T06:16:13.732Z,5.45
2022-09-24T06:18:43.420Z,18.48
2022-09-24T06:21:19.010Z,7.07
2022-09-24T06:23:47.975Z,6.32
2022-09-24T06:26:16.143Z,5.40
2022-09-24T06:28:44.195Z,5.63
2022-09-24T06:31:13.495Z,5.03
2022-09-24T06:33:42.035Z,5.10
2022-09-24T06:36:10.043Z,4.88
2022-09-24T06:38:40.529Z,5.40
2022-09-24T06:41:08.900Z,5.35
2022-09-24T06:43:36.849Z,5.75
2022-09-24T06:46:05.008Z,5.28
2022-09-24T06:48:33.382Z,5.20
2022-09-24T06:51:01.305Z,5.15
2022-09-24T06:53:29.186Z,5.50
2022-09-24T06:56:08.938Z,4.90
2022-09-24T06:58:39.737Z,5.40
2022-09-24T07:01:09.585Z,5.25
2022-09-24T07:03:40.079Z,5.55
2022-09-24T07:06:08.473Z,4.60
2022-09-24T07:09:23.951Z,4.90
2022-09-24T07:11:51.952Z,4.78
2022-09-24T07:14:25.143Z,4.75
2022-09-24T07:16:55.060Z,4.90
2022-09-24T07:19:22.931Z,4.65
2022-09-24T07:21:53.888Z,4.82
2022-09-24T07:24:22.155Z,4.78
2022-09-24T07:26:50.382Z,4.88
2022-09-24T07:29:18.424Z,4.82
2022-09-24T07:31:49.560Z,5.20
2022-09-24T07:34:17.953Z,5.00
2022-09-24T07:36:47.907Z,4.80
2022-09-24T07:39:18.702Z,5.28
2022-09-24T07:41:49.563Z,5.70
2022-09-24T07:44:20.938Z,4.88
2022-09-24T07:46:49.928Z,5.05
2022-09-24T07:49:18.313Z,5.63
2022-09-24T07:51:49.517Z,4.93
2022-09-24T07:56:46.290Z,5.18
2022-09-24T07:59:15.186Z,5.10
2022-09-24T08:01:43.128Z,5.13
2022-09-24T08:04:11.710Z,5.07
2022-09-24T08:06:43.638Z,5.45
2022-09-24T08:09:17.876Z,5.82
2022-09-24T08:14:13.778Z,6.40
2022-09-24T08:16:42.323Z,6.05
2022-09-24T08:19:15.100Z,5.80
2022-09-24T08:21:42.982Z,6.47
2022-09-24T08:24:10.939Z,5.70
2022-09-24T08:26:38.841Z,5.63
2022-09-24T08:29:06.698Z,6.40
2022-09-24T08:31:38.340Z,6.57
2022-09-24T08:34:06.323Z,5.60
2022-09-24T08:36:34.337Z,6.03
2022-09-24T08:39:02.208Z,6.35
2022-09-24T08:42:01.384Z,6.40
2022-09-24T08:44:47.687Z,5.75
2022-09-24T08:47:24.886Z,5.85
2022-09-24T08:50:10.959Z,5.82
2022-09-24T08:52:47.745Z,5.53
2022-09-24T08:55:36.674Z,6.10
2022-09-24T08:58:18.473Z,8.75
2022-09-24T09:00:58.415Z,7.43
2022-09-24T09:03:44.269Z,6.68
2022-09-24T09:06:41.391Z,6.07
2022-09-24T09:09:22.763Z,6.13
2022-09-24T09:12:04.203Z,7.30
2022-09-24T09:17:33.987Z,7.07
2022-09-24T09:20:06.790Z,7.30
2022-09-24T09:22:44.523Z,7.72
2022-09-24T09:25:37.068Z,8.25
2022-09-24T09:28:16.219Z,6.82
2022-09-24T09:30:58.129Z,7.47
2022-09-24T09:33:55.035Z,7.13
2022-09-24T09:37:06.517Z,6.82
2022-09-24T09:40:13.226Z,7.68
2022-09-24T09:42:41.518Z,7.32
2022-09-24T09:45:40.494Z,7.20
2022-09-24T09:48:13.917Z,7.05
2022-09-24T09:50:52.983Z,7.50
2022-09-24T09:53:26.360Z,8.38
2022-09-24T09:55:56.932Z,9.13
2022-09-24T09:58:28.157Z,8.30
2022-09-24T10:01:18.280Z,8.20
2022-09-24T10:03:46.246Z,9.23
2022-09-24T10:06:29.581Z,8.80
2022-09-24T10:09:14.439Z,9.38
2022-09-24T10:11:43.228Z,9.95
2022-09-24T10:14:16.848Z,7.97
2022-09-24T10:16:47.757Z,7.47
2022-09-24T10:19:20.516Z,8.20
2022-09-24T10:21:48.407Z,9.32
2022-09-24T10:24:21.295Z,8.98
2022-09-24T10:26:50.281Z,9.20
2022-09-24T10:29:41.904Z,8.88
2022-09-24T10:32:18.530Z,8.68
2022-09-24T10:34:57.276Z,9.68
2022-09-24T10:37:31.115Z,9.68
2022-09-24T10:40:10.069Z,9.80
2022-09-24T10:42:38.270Z,10.35
2022-09-24T10:45:15.098Z,9.18
2022-09-24T10:47:59.316Z,10.00
2022-09-24T10:50:44.810Z,9.93
2022-09-24T10:53:20.478Z,10.23
2022-09-24T10:56:14.559Z,10.30
2022-09-24T10:58:47.738Z,10.73
2022-09-24T11:01:30.436Z,9.73
2022-09-24T11:04:10.878Z,9.60
2022-09-24T11:07:15.577Z,9.95
2022-09-24T11:10:10.954Z,10.00
2022-09-24T11:12:54.925Z,9.57
2022-09-24T11:15:35.740Z,10.32
2022-09-24T11:18:15.578Z,10.20
2022-09-24T11:21:03.714Z,9.40
2022-09-24T11:23:53.394Z,9.65
2022-09-24T11:27:07.245Z,9.75
2022-09-24T11:30:02.739Z,10.68
2022-09-24T11:32:57.398Z,11.18
2022-09-24T11:35:36.605Z,11.23
2022-09-24T11:38:22.637Z,11.07
2022-09-24T11:41:18.118Z,11.05
2022-09-24T11:44:02.129Z,10.18
2022-09-24T11:46:54.845Z,10.82
2022-09-24T11:49:30.197Z,11.25
2022-09-24T11:52:04.300Z,10.52
2022-09-24T11:54:44.575Z,9.90
2022-09-24T11:57:14.432Z,9.88
2022-09-24T12:00:00.670Z,9.60
2022-09-24T12:02:41.553Z,9.27
2022-09-24T12:05:15.311Z,9.57
2022-09-24T12:07:51.959Z,11.15
2022-09-24T12:10:30.951Z,16.27
2022-09-24T12:13:05.611Z,9.73
2022-09-24T12:15:46.764Z,10.38
2022-09-24T12:18:40.059Z,10.52
2022-09-24T12:21:16.710Z,10.38
2022-09-24T12:23:49.356Z,8.98
2022-09-24T12:26:21.226Z,8.80
2022-09-24T12:29:08.412Z,8.73
2022-09-24T12:32:25.231Z,8.50
2022-09-24T12:35:00.185Z,8.88
2022-09-24T12:37:37.024Z,8.60
2022-09-24T12:40:29.656Z,8.93
2022-09-24T12:43:02.742Z,8.65
2022-09-24T12:45:36.632Z,7.47
2022-09-24T12:48:04.767Z,7.60
2022-09-24T12:50:35.444Z,7.28
2022-09-24T12:53:03.803Z,7.50
2022-09-24T12:55:35.228Z,7.40
2022-09-24T12:58:04.895Z,8.27
2022-09-24T13:00:48.177Z,7.93
2022-09-24T13:03:40.780Z,6.97
2022-09-24T13:06:36.140Z,7.70
2022-09-24T13:09:25.992Z,8.15
2022-09-24T13:12:19.361Z,7.53
2022-09-24T13:15:03.628Z,7.82
2022-09-24T13:17:36.170Z,6.63
2022-09-24T13:20:27.057Z,8.07
2022-09-24T13:23:13.230Z,7.07
2022-09-24T13:25:41.339Z,6.20
2022-09-24T13:28:38.375Z,6.30
2022-09-24T13:31:22.351Z,6.10
2022-09-24T13:34:00.180Z,6.07
2022-09-24T13:36:34.176Z,6.25
2022-09-24T13:39:12.405Z,4.68
2022-09-24T13:42:01.485Z,3.97
2022-09-24T13:44:42.810Z,4.47
2022-09-24T13:49:49.547Z,5.03
2022-09-24T13:52:38.586Z,5.32
2022-09-24T13:55:19.614Z,5.72
2022-09-24T13:57:52.372Z,34.25
2022-09-24T14:00:28.605Z,56.35
2022-09-24T14:03:04.320Z,12.82
2022-09-24T14:05:39.512Z,12.02
2022-09-24T14:08:16.582Z,6.20
2022-09-24T14:10:50.120Z,5.43
2022-09-24T14:13:26.727Z,5.80
2022-09-24T14:16:08.268Z,5.32
2022-09-24T14:18:40.157Z,5.40
2022-09-24T14:21:20.781Z,5.05
2022-09-24T14:24:08.332Z,6.50
2022-09-24T14:26:45.118Z,6.90
2022-09-24T14:29:28.832Z,18.38
2022-09-24T14:34:35.344Z,7.47
2022-09-24T14:37:19.807Z,12.52
2022-09-24T14:39:58.577Z,30.58
2022-09-24T14:42:49.041Z,10.82
2022-09-24T14:45:27.990Z,28.40
2022-09-24T14:48:27.512Z,9.63
2022-09-24T14:50:55.564Z,16.48
2022-09-24T14:53:37.745Z,7.70
2022-09-24T14:56:38.009Z,7.22
2022-09-24T14:59:15.853Z,8.45
2022-09-24T15:01:45.198Z,6.05
2022-09-24T15:04:27.088Z,6.25
2022-09-24T15:06:56.489Z,5.95
2022-09-24T15:09:30.314Z,6.68
2022-09-24T15:12:22.606Z,7.32
2022-09-24T15:15:04.419Z,6.30
2022-09-24T15:17:35.940Z,7.88
2022-09-24T15:20:05.891Z,8.25
2022-09-24T15:22:33.889Z,7.68
2022-09-24T15:25:02.809Z,7.55
2022-09-24T15:27:33.503Z,6.07
2022-09-24T15:30:03.918Z,7.20
2022-09-24T15:32:33.604Z,7.45
2022-09-24T15:35:01.754Z,6.28
2022-09-24T15:37:30.808Z,6.55
2022-09-24T15:40:05.812Z,5.22
2022-09-24T15:42:33.870Z,6.60
2022-09-24T15:45:01.766Z,6.00
2022-09-24T15:47:29.688Z,6.47
2022-09-24T15:49:57.599Z,6.97
2022-09-24T15:52:28.804Z,6.55
2022-09-24T15:54:59.480Z,6.30
2022-09-24T15:57:27.759Z,7.57
2022-09-24T15:59:56.324Z,9.05
2022-09-24T16:02:33.677Z,8.20
2022-09-24T16:05:04.223Z,11.93
2022-09-24T16:07:32.396Z,11.43
2022-09-24T16:10:00.253Z,27.02
2022-09-24T16:12:29.148Z,34.33
2022-09-24T16:15:00.952Z,7.57
2022-09-24T16:17:31.226Z,7.65
2022-09-24T16:19:59.234Z,8.23
2022-09-24T16:22:30.422Z,7.78
2022-09-24T16:24:58.375Z,7.68
2022-09-24T16:27:26.203Z,6.45
2022-09-24T16:29:54.082Z,7.95
2022-09-24T16:32:21.925Z,7.60
2022-09-24T16:34:50.334Z,6.45
2022-09-24T16:37:19.423Z,6.82
2022-09-24T16:39:47.401Z,6.80
2022-09-24T16:42:15.251Z,6.63
2022-09-24T16:44:43.255Z,7.05
2022-09-24T16:47:11.469Z,8.20
2022-09-24T16:49:39.436Z,7.45
2022-09-24T16:52:07.334Z,8.30
2022-09-24T16:54:35.536Z,7.85
2022-09-24T16:57:04.436Z,7.97
2022-09-24T16:59:32.627Z,8.13
2022-09-24T17:02:00.990Z,9.77
2022-09-24T17:04:29.314Z,9.23
2022-09-24T17:06:58.575Z,10.82
2022-09-24T17:09:45.196Z,9.75
2022-09-24T17:12:13.101Z,11.30
2022-09-24T17:14:41.047Z,9.80
2022-09-24T17:17:11.687Z,10.60
2022-09-24T17:19:39.607Z,8.93
2022-09-24T17:22:07.580Z,10.35
2022-09-24T17:24:40.847Z,10.35
2022-09-24T17:27:09.303Z,12.07
2022-09-24T17:29:37.360Z,11.65
2022-09-24T17:32:05.482Z,10.55
2022-09-24T17:34:37.028Z,10.68
2022-09-24T17:37:07.821Z,10.15
2022-09-24T17:39:35.882Z,9.63
2022-09-24T17:42:05.268Z,11.48
2022-09-24T17:44:33.250Z,16.38
2022-09-24T17:47:01.306Z,14.57
2022-09-24T17:49:29.256Z,13.68
2022-09-24T17:52:01.417Z,12.88
2022-09-24T17:54:29.616Z,14.43
2022-09-24T17:56:57.494Z,12.15
2022-09-24T17:59:26.938Z,11.23
2022-09-24T18:01:55.435Z,10.70
2022-09-24T18:04:25.285Z,9.10
2022-09-24T18:06:53.693Z,10.18
2022-09-24T18:09:21.920Z,10.38
2022-09-24T18:11:52.768Z,10.63
2022-09-24T18:14:23.051Z,11.70
2022-09-24T18:16:51.602Z,13.15
2022-09-24T18:19:19.837Z,14.07
2022-09-24T18:21:50.261Z,13.90
2022-09-24T18:24:18.575Z,13.02
2022-09-24T18:26:50.863Z,12.82
2022-09-24T18:29:21.297Z,14.20
2022-09-24T18:31:49.679Z,13.60
2022-09-24T18:34:17.718Z,13.57
2022-09-24T18:36:46.241Z,15.15
2022-09-24T18:39:23.934Z,13.38
2022-09-24T18:41:52.953Z,13.05
2022-09-24T18:44:21.020Z,12.95
2022-09-24T18:46:49.412Z,13.80
2022-09-24T18:49:18.490Z,13.00
2022-09-24T18:51:51.612Z,13.82
2022-09-24T18:54:22.792Z,13.93
2022-09-24T18:56:50.765Z,15.82
2022-09-24T18:59:20.889Z,17.02
2022-09-24T19:01:51.582Z,14.65
2022-09-24T19:04:19.942Z,13.85
2022-09-24T19:06:52.813Z,12.57
2022-09-24T19:09:21.306Z,12.95
2022-09-24T19:11:49.834Z,15.93
2022-09-24T19:14:20.485Z,16.00
2022-09-24T19:16:49.238Z,16.07
2022-09-24T19:19:17.308Z,15.65
2022-09-24T19:21:45.431Z,15.30
2022-09-24T19:24:13.463Z,13.85
2022-09-24T19:26:41.703Z,13.88
2022-09-24T19:29:09.736Z,13.90
2022-09-24T19:31:40.305Z,14.52
2022-09-24T19:34:11.744Z,14.30
2022-09-24T19:36:44.663Z,12.98
2022-09-24T19:39:17.864Z,13.88
2022-09-24T19:41:46.402Z,14.30
2022-09-24T19:44:14.922Z,12.55
2022-09-24T19:46:43.238Z,12.40
2022-09-24T19:49:11.520Z,13.07
2022-09-24T19:51:40.230Z,13.48
2022-09-24T19:54:09.287Z,13.70
2022-09-24T19:56:38.131Z,13.07
2022-09-24T19:59:06.642Z,12.20
2022-09-24T20:01:38.953Z,11.50
2022-09-24T20:04:10.157Z,10.73
2022-09-24T20:06:39.094Z,10.57
2022-09-24T20:09:08.931Z,10.35
2022-09-24T20:11:36.825Z,10.43
2022-09-24T20:14:06.806Z,11.27
2022-09-24T20:16:34.857Z,10.68
2022-09-24T20:19:03.953Z,11.13
2022-09-24T20:21:35.574Z,10.48
2022-09-24T20:24:04.751Z,11.43
2022-09-24T20:26:52.167Z,12.05
2022-09-24T20:29:20.933Z,11.55
2022-09-24T20:31:54.119Z,12.20
2022-09-24T20:34:29.744Z,11.52
2022-09-24T20:37:02.431Z,12.25
2022-09-24T20:39:30.990Z,13.38
2022-09-24T20:42:06.995Z,12.32
2022-09-24T20:44:39.133Z,11.93
2022-09-24T20:47:07.039Z,12.70
2022-09-24T20:49:35.782Z,13.55
2022-09-24T20:52:04.405Z,13.10
2022-09-24T20:54:32.825Z,13.02
2022-09-24T20:57:01.185Z,11.40
2022-09-24T20:59:29.139Z,12.40
2022-09-24T21:01:57.377Z,10.68
2022-09-24T21:04:25.539Z,13.15
2022-09-24T21:06:53.559Z,11.38
2022-09-24T21:09:21.540Z,12.38
2022-09-24T21:11:51.351Z,12.80
2022-09-24T21:14:20.220Z,12.65
2022-09-24T21:16:48.499Z,12.40
2022-09-24T21:19:16.803Z,12.25
2022-09-24T21:21:44.779Z,12.60
2022-09-24T21:24:15.542Z,13.65
2022-09-24T21:26:46.082Z,11.45
2022-09-24T21:29:19.718Z,11.73
2022-09-24T21:31:48.770Z,10.60
2022-09-24T21:34:19.286Z,12.60
2022-09-24T21:36:47.332Z,11.40
2022-09-24T21:39:21.830Z,12.40
2022-09-24T21:41:51.363Z,11.27
2022-09-24T21:44:20.172Z,12.27
2022-09-24T21:46:48.991Z,11.98
2022-09-24T21:49:18.141Z,11.18
2022-09-24T21:51:46.827Z,14.73
2022-09-24T21:54:18.185Z,13.65
2022-09-24T21:59:39.621Z,12.60
2022-09-24T22:02:08.210Z,12.55
2022-09-24T22:04:36.121Z,13.95
2022-09-24T22:07:04.390Z,15.15
2022-09-24T22:09:33.736Z,15.30
2022-09-24T22:12:03.276Z,13.88
2022-09-24T22:14:31.461Z,15.48
2022-09-24T22:16:59.627Z,13.95
2022-09-24T22:19:27.555Z,14.45
2022-09-24T22:21:56.250Z,14.45
2022-09-24T22:24:24.444Z,14.63
2022-09-24T22:26:52.364Z,15.25
2022-09-24T22:29:20.235Z,15.45
2022-09-24T22:31:48.179Z,18.58
2022-09-24T22:34:34.429Z,18.33
2022-09-24T22:37:06.636Z,16.40
2022-09-24T22:39:35.267Z,17.50
2022-09-24T22:42:03.134Z,16.50
2022-09-24T22:44:30.998Z,17.25
2022-09-24T22:46:58.903Z,17.08
2022-09-24T22:49:28.343Z,16.35
2022-09-24T22:51:57.947Z,16.63
2022-09-24T22:54:26.003Z,15.15
2022-09-24T22:56:55.562Z,14.55
2022-09-24T22:59:23.402Z,18.38
2022-09-24T23:01:51.385Z,17.70
2022-09-24T23:04:19.271Z,17.30
2022-09-24T23:06:47.165Z,16.10
2022-09-24T23:09:15.099Z,19.00
2022-09-24T23:11:43.079Z,15.95
2022-09-24T23:14:15.893Z,16.23
2022-09-24T23:16:44.191Z,16.63
2022-09-24T23:19:18.301Z,15.60
2022-09-24T23:21:46.928Z,18.38
2022-09-24T23:24:18.199Z,19.98
2022-09-24T23:26:46.701Z,19.65
2022-09-24T23:29:15.155Z,19.85
2022-09-24T23:31:43.278Z,21.73
2022-09-24T23:34:14.362Z,17.70
2022-09-24T23:36:42.644Z,18.52
2022-09-24T23:39:10.590Z,19.95
2022-09-24T23:41:41.667Z,20.13
2022-09-24T23:44:09.628Z,16.75
2022-09-24T23:46:37.541Z,17.02
2022-09-24T23:49:05.573Z,18.33
2022-09-24T23:51:33.451Z,17.42
2022-09-24T23:54:01.375Z,17.52
2022-09-24T23:56:29.551Z,17.00
2022-09-24T23:58:58.715Z,17.95
